Time;durP1;ratioP1;P1;durP2;ratioP2;P2;SDS_P1;SDS_P2;PMS_P1;PMS_P2;Temp;Humidity;BMP_temperature;BMP_pressure;BME280_temperature;BME280_humidity;BME280_pressure;Samples;Min_cycle;Max_cycle;Signal;HPM_P1;HPM_P2
2021/04/08 00:01:15;;;;;;;5.60;4.70;;;2.10;69.50;;;;;;5014349;28;20436;-84
2021/04/08 00:03:40;;;;;;;12.32;5.40;;;1.90;68.40;;;;;;5014382;28;20171;-84
2021/04/08 00:06:06;;;;;;;14.40;6.80;;;2.20;68.70;;;;;;5014243;28;20194;-85
2021/04/08 00:08:32;;;;;;;8.63;7.07;;;2.20;69.00;;;;;;5013186;28;20168;-84
2021/04/08 00:10:58;;;;;;;8.47;5.57;;;;;;;;;;5014137;28;20667;-84
2021/04/08 00:13:23;;;;;;;16.23;7.45;;;2.40;68.20;;;;;;5012843;28;20584;-84
2021/04/08 00:15:49;;;;;;;8.33;6.17;;;2.20;68.90;;;;;;5012796;28;20172;-84
2021/04/08 00:18:16;;;;;;;10.37;6.90;;;;;;;;;;5014139;28;20260;-84
2021/04/08 00:20:43;;;;;;;10.82;6.85;;;2.30;67.70;;;;;;5014161;28;20729;-84
2021/04/08 00:23:08;;;;;;;11.68;10.48;;;2.10;68.50;;;;;;5014031;28;20251;-84
2021/04/08 00:25:36;;;;;;;16.27;8.50;;;2.10;69.00;;;;;;5014499;28;20672;-84
2021/04/08 00:28:02;;;;;;;17.67;9.80;;;1.80;69.10;;;;;;5013907;28;20196;-84
2021/04/08 00:30:28;;;;;;;11.32;8.35;;;2.70;70.60;;;;;;5014021;28;20219;-85
2021/04/08 00:32:53;;;;;;;8.10;7.27;;;1.30;69.40;;;;;;5012733;28;20177;-84
2021/04/08 00:35:19;;;;;;;9.83;8.80;;;1.80;70.40;;;;;;5013887;28;20195;-84
2021/04/08 00:37:45;;;;;;;15.57;9.07;;;1.90;70.50;;;;;;5013784;28;20200;-84
2021/04/08 00:40:13;;;;;;;14.47;9.50;;;1.70;70.30;;;;;;5013625;28;20418;-85
2021/04/08 00:42:42;;;;;;;15.25;8.88;;;1.90;70.80;;;;;;5013676;28;20183;-84
2021/04/08 00:45:09;;;;;;;10.77;9.38;;;1.90;71.20;;;;;;5013682;28;20172;-84
2021/04/08 00:47:35;;;;;;;14.85;9.90;;;1.80;70.80;;;;;;5013655;28;20211;-84
2021/04/08 00:50:01;;;;;;;10.25;7.00;;;1.70;70.50;;;;;;5013600;28;20295;-85
2021/04/08 00:52:27;;;;;;;14.32;10.02;;;1.80;70.20;;;;;;5013508;28;20218;-85
2021/04/08 00:54:53;;;;;;;16.20;9.38;;;;;;;;;;5012748;28;20238;-85
2021/04/08 00:57:19;;;;;;;13.23;7.77;;;;;;;;;;5012182;28;20275;-85
2021/04/08 00:59:45;;;;;;;11.70;7.17;;;;;;;;;;5012057;28;20379;-85
2021/04/08 01:02:12;;;;;;;16.38;7.75;;;1.70;69.60;;;;;;5013613;28;20426;-85
2021/04/08 01:04:37;;;;;;;11.75;8.57;;;1.50;70.70;;;;;;5013408;28;20165;-85
2021/04/08 01:07:03;;;;;;;10.20;7.53;;;1.50;92.80;;;;;;5013263;28;20196;-85
2021/04/08 01:09:29;;;;;;;21.40;8.43;;;1.30;71.20;;;;;;5012086;28;20200;-85
2021/04/08 01:11:54;;;;;;;15.53;8.40;;;1.40;71.20;;;;;;5013286;28;20608;-85
2021/04/08 01:14:21;;;;;;;9.73;7.27;;;1.40;71.40;;;;;;5013301;28;20177;-85
2021/04/08 01:16:54;;;;;;;13.68;8.38;;;1.30;70.60;;;;;;5012072;28;20187;-85
2021/04/08 01:20:07;;;;;;;12.20;7.85;;;1.50;71.90;;;;;;5013086;28;20165;-85
2021/04/08 01:22:57;;;;;;;14.75;6.80;;;1.40;90.90;;;;;;5013244;28;20255;-84
2021/04/08 01:25:44;;;;;;;9.07;6.78;;;1.30;72.20;;;;;;5011953;28;20769;-84
2021/04/08 01:28:16;;;;;;;13.35;7.00;;;1.30;71.70;;;;;;5011757;28;20295;-84
2021/04/08 01:30:47;;;;;;;14.43;8.25;;;1.20;72.40;;;;;;5013141;28;20167;-84
2021/04/08 01:33:28;;;;;;;9.68;7.38;;;0.80;71.20;;;;;;5013095;28;20255;-84
2021/04/08 01:35:56;;;;;;;11.75;9.10;;;1.00;71.90;;;;;;5013144;28;20172;-84
2021/04/08 01:38:32;;;;;;;19.98;8.10;;;0.80;72.10;;;;;;5011768;28;20180;-84
2021/04/08 01:41:00;;;;;;;13.52;8.50;;;0.90;71.90;;;;;;5012982;28;20167;-84
2021/04/08 01:43:30;;;;;;;21.20;8.15;;;1.00;72.20;;;;;;5013031;28;20172;-85
2021/04/08 01:45:58;;;;;;;8.68;6.60;;;1.10;72.30;;;;;;5012965;28;20218;-85
2021/04/08 01:48:24;;;;;;;11.35;7.75;;;1.00;72.10;;;;;;5011668;28;20177;-85
2021/04/08 01:50:55;;;;;;;9.43;7.10;;;1.00;72.40;;;;;;5012913;28;20165;-84
2021/04/08 01:53:22;;;;;;;12.82;8.20;;;1.00;72.60;;;;;;5013047;28;20171;-84
2021/04/08 01:55:51;;;;;;;13.68;7.28;;;1.20;94.30;;;;;;5011807;28;20172;-84
2021/04/08 01:58:20;;;;;;;9.63;6.68;;;0.90;72.60;;;;;;5011655;28;20181;-84
2021/04/08 02:00:46;;;;;;;12.05;7.93;;;0.90;73.10;;;;;;5011522;28;20564;-84
2021/04/08 02:03:15;;;;;;;15.90;7.40;;;0.90;73.30;;;;;;5011584;28;20264;-84
2021/04/08 02:05:41;;;;;;;11.13;7.72;;;0.80;73.20;;;;;;5013422;28;20384;-84
2021/04/08 02:08:08;;;;;;;14.18;9.18;;;0.60;73.30;;;;;;5016615;28;20208;-84
2021/04/08 02:10:35;;;;;;;14.30;9.23;;;1.80;75.10;;;;;;5016638;28;20640;-84
2021/04/08 02:13:04;;;;;;;11.00;7.93;;;0.90;73.50;;;;;;5016371;28;20173;-85
2021/04/08 02:15:31;;;;;;;7.68;6.85;;;0.70;72.50;;;;;;5016372;28;20165;-85
2021/04/08 02:17:59;;;;;;;9.20;7.18;;;1.00;72.70;;;;;;5016330;28;20165;-85
2021/04/08 02:20:31;;;;;;;10.95;7.00;;;1.00;72.40;;;;;;5016190;28;20287;-84
2021/04/08 02:23:00;;;;;;;11.30;9.10;;;0.90;72.80;;;;;;5016204;28;20550;-84
2021/04/08 02:25:30;;;;;;;17.80;9.18;;;0.90;73.50;;;;;;5016252;28;20271;-85
2021/04/08 02:27:58;;;;;;;12.43;9.05;;;0.80;73.60;;;;;;5016184;28;20253;-85
2021/04/08 02:30:25;;;;;;;10.65;8.05;;;0.80;73.60;;;;;;5016058;28;20179;-84
2021/04/08 02:32:52;;;;;;;12.45;8.25;;;0.80;73.70;;;;;;5016632;28;20251;-84
2021/04/08 02:35:18;;;;;;;9.13;7.25;;;;;;;;;;5014762;28;20164;-84
2021/04/08 02:37:45;;;;;;;9.60;7.43;;;1.20;73.00;;;;;;5015992;28;20172;-84
2021/04/08 02:40:13;;;;;;;15.63;8.13;;;1.10;94.30;;;;;;5015997;28;20878;-84
2021/04/08 02:42:39;;;;;;;8.88;6.63;;;1.20;94.90;;;;;;5016093;28;20581;-85
2021/04/08 02:45:06;;;;;;;9.80;8.00;;;1.00;73.80;;;;;;5015824;28;20248;-85
2021/04/08 02:47:32;;;;;;;12.73;8.13;;;1.10;94.80;;;;;;5015653;28;20244;-84
2021/04/08 02:49:58;;;;;;;11.43;8.83;;;1.00;73.50;;;;;;5016890;28;20247;-83
2021/04/08 02:52:26;;;;;;;10.63;7.68;;;1.50;73.50;;;;;;5017875;28;20169;-83
2021/04/08 02:55:07;;;;;;;11.57;9.00;;;0.90;73.50;;;;;;5017693;28;20207;-84
2021/04/08 02:58:04;;;;;;;13.10;7.35;;;0.90;73.90;;;;;;5017460;28;20180;-86
2021/04/08 03:00:36;;;;;;;8.55;7.68;;;0.80;74.10;;;;;;5015142;28;20267;-84
2021/04/08 03:03:11;;;;;;;16.27;8.63;;;1.00;74.10;;;;;;5015462;28;20168;-85
2021/04/08 03:05:41;;;;;;;11.60;7.53;;;1.10;73.80;;;;;;5014265;28;20592;-85
2021/04/08 03:08:09;;;;;;;18.98;8.45;;;1.10;73.90;;;;;;5015490;28;20200;-84
2021/04/08 03:10:40;;;;;;;11.32;7.68;;;1.10;74.00;;;;;;5015428;28;20219;-84
2021/04/08 03:13:09;;;;;;;17.23;7.97;;;1.20;74.00;;;;;;5014243;28;20654;-85
2021/04/08 03:15:36;;;;;;;13.05;9.55;;;1.20;73.20;;;;;;5015516;28;20256;-84
2021/04/08 03:18:06;;;;;;;19.95;9.75;;;1.20;73.30;;;;;;5013500;28;20177;-84
2021/04/08 03:20:33;;;;;;;17.23;10.95;;;1.00;73.30;;;;;;5013756;28;20711;-85
2021/04/08 03:23:02;;;;;;;19.92;11.27;;;1.00;73.70;;;;;;5014990;28;20184;-84
2021/04/08 03:25:29;;;;;;;16.45;12.10;;;1.00;74.30;;;;;;5013845;28;20176;-86
2021/04/08 03:27:55;;;;;;;19.35;13.63;;;1.20;74.40;;;;;;5013934;28;20279;-84
2021/04/08 03:30:21;;;;;;;18.80;10.15;;;1.20;74.70;;;;;;5014983;28;20165;-84
2021/04/08 03:32:47;;;;;;;11.50;10.15;;;1.40;75.40;;;;;;5013806;28;20231;-84
2021/04/08 03:35:13;;;;;;;11.25;8.07;;;1.30;74.80;;;;;;5014950;28;20522;-85
2021/04/08 03:37:40;;;;;;;14.02;9.48;;;1.50;74.70;;;;;;5015062;28;20264;-85
2021/04/08 03:40:09;;;;;;;14.07;9.90;;;1.30;73.80;;;;;;5013653;28;20172;-85
2021/04/08 03:42:35;;;;;;;10.15;9.02;;;1.50;73.90;;;;;;5014781;28;20180;-86
2021/04/08 03:45:03;;;;;;;10.20;9.18;;;1.50;73.50;;;;;;5014851;28;20187;-86
2021/04/08 03:47:29;;;;;;;10.05;9.00;;;1.30;72.30;;;;;;5014727;28;20308;-86
2021/04/08 03:49:55;;;;;;;10.65;8.60;;;1.60;72.60;;;;;;5014675;28;20636;-86
2021/04/08 03:52:21;;;;;;;10.63;8.53;;;1.60;72.10;;;;;;5015722;28;20252;-86
2021/04/08 03:54:49;;;;;;;8.77;7.85;;;1.70;70.10;;;;;;5014666;28;20437;-85
2021/04/08 03:57:19;;;;;;;12.07;6.18;;;-0.40;68.00;;;;;;5014610;28;20227;-85
2021/04/08 03:59:46;;;;;;;9.40;6.72;;;1.60;70.90;;;;;;5015214;28;20620;-85
2021/04/08 04:02:14;;;;;;;15.07;7.22;;;1.60;72.20;;;;;;5013161;28;20302;-86
2021/04/08 04:04:40;;;;;;;12.32;6.95;;;1.60;71.90;;;;;;5012997;28;20575;-85
2021/04/08 04:07:06;;;;;;;11.48;8.88;;;2.50;73.20;;;;;;5014187;28;20209;-86
2021/04/08 04:09:32;;;;;;;12.68;7.55;;;1.20;71.80;;;;;;5014267;28;20172;-84
2021/04/08 04:11:58;;;;;;;8.70;6.87;;;1.40;72.10;;;;;;5014405;28;20173;-85
2021/04/08 04:14:28;;;;;;;10.20;7.63;;;1.40;72.00;;;;;;5014287;28;20168;-85
2021/04/08 04:16:57;;;;;;;10.23;8.85;;;1.40;71.20;;;;;;5012870;28;20208;-86
2021/04/08 04:19:23;;;;;;;9.15;7.28;;;1.40;71.60;;;;;;5012769;28;20179;-85
2021/04/08 04:21:50;;;;;;;8.20;5.50;;;1.90;72.50;;;;;;5014195;28;20188;-85
2021/04/08 04:24:15;;;;;;;11.07;7.00;;;1.50;71.50;;;;;;5014151;28;20168;-86
2021/04/08 04:26:41;;;;;;;10.07;6.00;;;1.50;71.50;;;;;;5012929;28;20196;-86
2021/04/08 04:29:06;;;;;;;7.53;5.30;;;1.40;71.60;;;;;;5013630;28;20177;-85
2021/04/08 04:31:33;;;;;;;8.87;4.70;;;1.70;70.40;;;;;;5013491;28;20169;-86
2021/04/08 04:33:59;;;;;;;9.40;5.45;;;;;;;;;;5012741;28;20176;-85
2021/04/08 04:36:25;;;;;;;6.43;5.85;;;1.70;92.40;;;;;;5013965;28;20164;-85
2021/04/08 04:38:51;;;;;;;6.57;5.93;;;;;;;;;;5013793;28;20531;-85
2021/04/08 04:41:16;;;;;;;6.68;6.07;;;1.80;70.90;;;;;;5012680;28;20180;-85
2021/04/08 04:43:42;;;;;;;8.70;5.53;;;1.60;71.40;;;;;;5013742;28;20173;-85
2021/04/08 04:46:09;;;;;;;6.23;4.40;;;1.60;71.10;;;;;;5013966;28;20165;-86
2021/04/08 04:48:35;;;;;;;9.13;5.70;;;1.80;70.10;;;;;;5012356;28;20199;-86
2021/04/08 04:51:01;;;;;;;6.80;5.03;;;1.50;70.00;;;;;;5013758;28;20168;-85
2021/04/08 04:53:27;;;;;;;6.50;5.00;;;1.80;70.60;;;;;;5012534;28;20263;-86
2021/04/08 04:55:52;;;;;;;13.37;5.07;;;1.60;69.90;;;;;;5012143;28;20415;-85
2021/04/08 04:58:18;;;;;;;8.33;5.63;;;1.90;92.90;;;;;;5013506;28;20251;-84
2021/04/08 05:00:43;;;;;;;5.97;5.23;;;2.20;70.30;;;;;;5013266;28;20173;-85
2021/04/08 05:03:11;;;;;;;9.60;5.43;;;1.80;69.80;;;;;;5013522;28;20169;-85
2021/04/08 05:05:40;;;;;;;9.13;5.18;;;2.30;89.90;;;;;;5013546;28;20175;-84
2021/04/08 05:08:05;;;;;;;4.43;4.07;;;1.80;68.70;;;;;;5013248;28;20204;-83
2021/04/08 05:10:34;;;;;;;6.90;3.70;;;;;;;;;;5012940;28;20164;-84
2021/04/08 05:13:00;;;;;;;5.28;3.67;;;2.20;93.00;;;;;;5013124;28;20605;-83
2021/04/08 05:15:26;;;;;;;5.57;3.63;;;2.00;68.60;;;;;;5013210;28;20188;-85
2021/04/08 05:17:51;;;;;;;5.47;3.57;;;2.20;69.70;;;;;;5013479;28;20168;-84
2021/04/08 05:20:17;;;;;;;6.27;4.80;;;1.50;67.10;;;;;;5013079;28;20224;-83
2021/04/08 05:22:43;;;;;;;4.83;4.07;;;;;;;;;;5011805;28;20184;-84
2021/04/08 05:25:09;;;;;;;5.37;4.27;;;2.30;67.60;;;;;;5013270;28;20172;-84
2021/04/08 05:27:34;;;;;;;5.32;4.93;;;2.30;68.60;;;;;;5012671;28;20474;-84
2021/04/08 05:30:01;;;;;;;7.37;4.10;;;2.30;68.80;;;;;;5011924;28;20574;-84
2021/04/08 05:32:27;;;;;;;7.60;4.00;;;2.20;68.00;;;;;;5013201;28;20172;-84
2021/04/08 05:34:53;;;;;;;7.63;3.85;;;2.60;92.60;;;;;;5013483;28;20549;-86
2021/04/08 05:37:19;;;;;;;6.40;4.10;;;2.30;67.60;;;;;;5013037;28;20169;-84
2021/04/08 05:39:44;;;;;;;4.60;3.53;;;2.30;67.80;;;;;;5012983;28;20436;-85
2021/04/08 05:42:10;;;;;;;10.53;4.10;;;2.30;67.30;;;;;;5015674;28;20526;-84
2021/04/08 05:44:36;;;;;;;4.00;3.65;;;2.40;67.60;;;;;;5016934;28;20176;-84
2021/04/08 05:47:02;;;;;;;5.53;5.03;;;2.40;67.40;;;;;;5015519;28;20204;-83
2021/04/08 05:49:27;;;;;;;6.70;5.07;;;2.90;68.00;;;;;;5016805;28;20671;-84
2021/04/08 05:51:53;;;;;;;7.63;5.90;;;2.50;67.10;;;;;;5017106;28;20180;-83
2021/04/08 05:54:18;;;;;;;9.93;4.57;;;2.50;67.50;;;;;;5016929;28;20617;-85
2021/04/08 05:56:44;;;;;;;12.30;5.43;;;2.50;67.80;;;;;;5016838;28;20272;-85
2021/04/08 05:59:09;;;;;;;10.30;5.63;;;2.70;66.70;;;;;;5016380;28;20164;-83
2021/04/08 06:01:35;;;;;;;9.53;5.90;;;2.70;66.90;;;;;;5016779;28;20172;-85
2021/04/08 06:04:01;;;;;;;7.13;6.50;;;;;;;;;;5016504;28;20169;-83
2021/04/08 06:06:27;;;;;;;7.03;6.40;;;;;;;;;;5016534;28;20246;-84
2021/04/08 06:08:52;;;;;;;6.93;5.83;;;2.90;64.20;;;;;;5016978;28;20419;-84
2021/04/08 06:11:18;;;;;;;7.37;6.67;;;2.80;64.40;;;;;;5015612;28;20416;-84
2021/04/08 06:13:47;;;;;;;9.33;7.57;;;2.90;64.20;;;;;;5016466;28;20284;-84
2021/04/08 06:16:12;;;;;;;11.77;8.63;;;2.90;90.80;;;;;;5016566;28;20200;-84
2021/04/08 06:18:38;;;;;;;9.90;8.20;;;;;;;;;;5016337;28;20196;-82
2021/04/08 06:21:04;;;;;;;21.55;10.13;;;2.90;63.50;;;;;;5015922;28;20692;-85
2021/04/08 06:23:30;;;;;;;10.77;9.87;;;3.00;66.50;;;;;;5016392;28;20255;-85
2021/04/08 06:25:57;;;;;;;9.80;8.77;;;2.90;65.30;;;;;;5016415;28;20440;-84
2021/04/08 06:28:23;;;;;;;13.17;9.00;;;2.60;64.50;;;;;;4311927;28;10000716;-85
2021/04/08 06:30:48;;;;;;;13.03;10.13;;;3.50;89.90;;;;;;4993710;28;20172;-84
2021/04/08 06:33:14;;;;;;;17.43;8.80;;;;;;;;;;4994031;28;20185;-85
2021/04/08 06:35:40;;;;;;;16.37;8.77;;;3.40;60.40;;;;;;4994232;28;20281;-84
2021/04/08 06:38:07;;;;;;;9.80;9.00;;;3.30;61.10;;;;;;4993827;28;20447;-82
2021/04/08 06:40:35;;;;;;;12.05;9.32;;;3.40;60.50;;;;;;4994328;28;20177;-85
2021/04/08 06:43:02;;;;;;;11.43;10.05;;;3.00;60.20;;;;;;4993927;28;20200;-83
2021/04/08 06:45:29;;;;;;;10.02;8.20;;;3.40;60.80;;;;;;4992515;28;20182;-85
2021/04/08 06:48:07;;;;;;;12.20;9.35;;;2.30;59.10;;;;;;4994052;28;20790;-85
2021/04/08 06:50:36;;;;;;;10.02;9.10;;;3.80;84.40;;;;;;4993040;28;20184;-85
2021/04/08 06:53:06;;;;;;;10.35;9.40;;;3.10;59.60;;;;;;4992207;28;20169;-86
2021/04/08 06:55:33;;;;;;;13.10;10.75;;;3.80;59.80;;;;;;4994258;28;20165;-85
2021/04/08 06:58:01;;;;;;;12.25;8.18;;;4.20;59.50;;;;;;5001483;28;20180;-83
2021/04/08 07:00:28;;;;;;;9.25;8.27;;;4.00;79.60;;;;;;5014301;28;20295;-85
2021/04/08 07:02:54;;;;;;;10.10;9.13;;;;;;;;;;5010998;28;20272;-85
2021/04/08 07:05:20;;;;;;;10.88;8.48;;;4.50;76.00;;;;;;5013689;28;20180;-85
2021/04/08 07:07:46;;;;;;;8.80;8.00;;;;;;;;;;5013351;28;20204;-84
2021/04/08 07:10:11;;;;;;;10.60;9.52;;;4.70;56.30;;;;;;5011771;28;20323;-84
2021/04/08 07:12:38;;;;;;;8.93;8.13;;;4.70;57.70;;;;;;5015387;28;20222;-85
2021/04/08 07:15:05;;;;;;;9.52;7.70;;;4.40;56.70;;;;;;5015561;28;20161;-85
2021/04/08 07:17:31;;;;;;;8.30;7.50;;;5.00;56.70;;;;;;5015439;28;20624;-85
2021/04/08 07:19:57;;;;;;;8.57;7.80;;;4.80;55.90;;;;;;5015241;28;20222;-85
2021/04/08 07:22:26;;;;;;;7.68;7.13;;;4.20;54.70;;;;;;5015559;28;20255;-85
2021/04/08 07:24:52;;;;;;;8.57;7.38;;;5.10;54.10;;;;;;5013733;28;20621;-85
2021/04/08 07:27:21;;;;;;;8.40;7.00;;;5.70;55.20;;;;;;5015020;28;20208;-85
2021/04/08 07:29:54;;;;;;;9.65;8.68;;;5.30;54.00;;;;;;5014306;28;20169;-84
2021/04/08 07:32:28;;;;;;;11.63;8.70;;;5.40;53.20;;;;;;5015301;28;20173;-85
2021/04/08 07:35:12;;;;;;;8.80;7.85;;;6.20;71.10;;;;;;5015102;28;20180;-87
2021/04/08 07:37:41;;;;;;;11.43;9.60;;;6.00;53.40;;;;;;5014103;28;20176;-87
2021/04/08 07:40:18;;;;;;;10.80;8.70;;;6.50;70.00;;;;;;5013734;28;20295;-86
2021/04/08 07:42:44;;;;;;;8.68;7.72;;;6.50;52.60;;;;;;5015159;28;20650;-84
2021/04/08 07:45:11;;;;;;;7.30;6.67;;;6.80;52.20;;;;;;5015202;28;20176;-85
2021/04/08 07:47:43;;;;;;;8.20;7.45;;;6.90;50.60;;;;;;5013188;28;20828;-84
2021/04/08 07:50:12;;;;;;;8.52;7.72;;;6.80;49.10;;;;;;5013575;28;20294;-85
2021/04/08 07:52:50;;;;;;;6.63;5.40;;;6.70;49.40;;;;;;5014151;28;20161;-86
2021/04/08 07:55:34;;;;;;;7.50;6.70;;;6.50;49.50;;;;;;5014177;28;20214;-86
2021/04/08 07:58:00;;;;;;;9.25;5.97;;;;;;;;;;5013686;28;20172;-84
2021/04/08 08:00:36;;;;;;;7.33;6.70;;;7.40;48.40;;;;;;5013219;28;20686;-85
2021/04/08 08:03:10;;;;;;;6.70;6.15;;;7.90;48.20;;;;;;5014001;28;20477;-86
2021/04/08 08:05:45;;;;;;;7.05;6.65;;;8.50;46.20;;;;;;5013237;28;20180;-87
2021/04/08 08:08:13;;;;;;;7.13;5.93;;;8.40;45.90;;;;;;5015236;28;20200;-86
2021/04/08 08:10:42;;;;;;;6.13;5.63;;;8.60;46.80;;;;;;5015055;28;20400;-85
2021/04/08 08:13:24;;;;;;;8.70;5.70;;;8.80;44.70;;;;;;5015114;28;20420;-86
2021/04/08 08:15:50;;;;;;;6.80;5.80;;;9.10;45.10;;;;;;5014103;28;20259;-85
2021/04/08 08:18:26;;;;;;;10.70;6.17;;;9.40;44.10;;;;;;5013477;28;20595;-85
2021/04/08 08:20:54;;;;;;;10.60;7.33;;;9.10;55.30;;;;;;5014325;28;20981;-87
2021/04/08 08:23:33;;;;;;;6.50;5.87;;;9.10;43.30;;;;;;5012605;28;20424;-87
2021/04/08 08:26:31;;;;;;;7.43;6.73;;;8.80;44.30;;;;;;5014311;28;20470;-85
2021/04/08 08:29:18;;;;;;;8.60;5.53;;;8.90;45.00;;;;;;5014756;28;20427;-88
2021/04/08 08:31:49;;;;;;;6.90;6.40;;;9.00;54.80;;;;;;5015276;28;20173;-87
2021/04/08 08:34:30;;;;;;;8.95;6.68;;;9.10;43.80;;;;;;4322146;28;10000704;-86
2021/04/08 08:37:01;;;;;;;6.27;5.60;;;9.50;44.00;;;;;;5013348;28;20218;-86
2021/04/08 08:39:31;;;;;;;7.90;6.30;;;9.30;43.20;;;;;;5013283;28;20443;-85
2021/04/08 08:41:58;;;;;;;8.47;6.23;;;10.60;53.90;;;;;;5011731;28;20399;-86
2021/04/08 08:44:24;;;;;;;11.60;4.97;;;;;;;;;;5009915;28;20427;-85
2021/04/08 08:47:04;;;;;;;4.63;4.43;;;11.00;39.40;;;;;;5010692;28;20509;-86
2021/04/08 08:49:35;;;;;;;5.57;5.07;;;10.40;39.80;;;;;;4991079;28;20431;-84
2021/04/08 08:52:02;;;;;;;6.83;4.27;;;;;;;;;;5001391;28;20412;-84
2021/04/08 08:54:31;;;;;;;5.45;4.95;;;10.00;40.10;;;;;;5011774;28;20447;-85
2021/04/08 08:56:58;;;;;;;4.90;4.50;;;9.90;50.00;;;;;;5010556;28;20208;-87
2021/04/08 08:59:24;;;;;;;4.80;4.50;;;9.90;41.10;;;;;;5011195;28;20183;-86
2021/04/08 09:01:51;;;;;;;4.75;4.32;;;9.60;40.40;;;;;;5012491;28;20169;-86
2021/04/08 09:04:17;;;;;;;4.73;4.43;;;9.40;39.80;;;;;;5013254;28;20169;-85
2021/04/08 09:06:43;;;;;;;11.57;4.33;;;10.70;41.40;;;;;;5014005;28;20987;-85
2021/04/08 09:09:12;;;;;;;10.85;5.03;;;10.00;39.90;;;;;;5014307;28;20732;-86
2021/04/08 09:11:42;;;;;;;4.82;4.63;;;11.10;34.60;;;;;;5013442;28;20188;-86
2021/04/08 09:14:10;;;;;;;7.43;5.40;;;13.20;36.40;;;;;;5014193;28;20156;-85
2021/04/08 09:16:44;;;;;;;11.25;4.72;;;9.20;36.20;;;;;;5011926;28;20627;-84
2021/04/08 09:19:11;;;;;;;3.95;3.60;;;9.90;38.40;;;;;;5013318;28;20167;-84
2021/04/08 09:21:52;;;;;;;4.00;3.70;;;9.70;37.60;;;;;;5014145;28;20223;-86
2021/04/08 09:24:23;;;;;;;8.27;4.00;;;10.70;38.50;;;;;;5007566;28;20266;-87
2021/04/08 09:26:55;;;;;;;5.10;4.50;;;10.10;35.90;;;;;;5001969;28;20448;-82
2021/04/08 09:29:54;;;;;;;3.93;3.73;;;9.50;36.60;;;;;;5003929;28;20497;-84
2021/04/08 09:32:21;;;;;;;5.50;4.07;;;10.40;34.80;;;;;;5012755;28;20510;-88
2021/04/08 09:35:05;;;;;;;5.55;3.83;;;10.80;34.30;;;;;;5014238;28;20256;-86
2021/04/08 09:37:46;;;;;;;4.73;4.17;;;10.80;33.20;;;;;;5014650;28;20236;-87
2021/04/08 09:40:24;;;;;;;5.60;4.75;;;10.90;32.60;;;;;;5014590;28;20922;-85
2021/04/08 09:42:59;;;;;;;5.63;4.13;;;9.70;33.20;;;;;;5015782;28;20171;-87
2021/04/08 09:45:24;;;;;;;4.55;3.30;;;10.60;34.80;;;;;;5014336;28;20662;-86
2021/04/08 09:48:09;;;;;;;7.10;4.17;;;9.20;34.20;;;;;;5015148;28;20216;-87
2021/04/08 09:50:45;;;;;;;3.00;2.90;;;11.40;37.20;;;;;;5012826;28;20335;-86
2021/04/08 09:53:12;;;;;;;5.00;4.70;;;10.20;32.50;;;;;;5011662;28;20499;-85
2021/04/08 09:55:38;;;;;;;3.60;3.30;;;9.80;34.20;;;;;;5013203;28;20817;-86
2021/04/08 09:58:05;;;;;;;2.70;2.47;;;9.80;33.40;;;;;;5012848;28;20426;-87
2021/04/08 10:00:32;;;;;;;5.40;3.00;;;12.50;30.90;;;;;;4666694;28;10001034;-85
2021/04/08 10:03:06;;;;;;;4.13;3.60;;;8.40;30.40;;;;;;5010391;28;20219;-86
2021/04/08 10:05:34;;;;;;;5.55;3.63;;;9.00;31.40;;;;;;5010565;28;20511;-85
2021/04/08 10:08:00;;;;;;;3.97;3.75;;;8.60;30.90;;;;;;5010489;28;20288;-86
2021/04/08 10:10:35;;;;;;;4.07;3.70;;;8.30;31.50;;;;;;5010409;28;20201;-87
2021/04/08 10:13:00;;;;;;;3.55;3.40;;;8.30;31.20;;;;;;5011700;28;20411;-86
2021/04/08 10:15:36;;;;;;;3.67;3.33;;;8.40;31.90;;;;;;5010439;28;20522;-86
2021/04/08 10:18:18;;;;;;;5.38;5.00;;;8.50;31.30;;;;;;5010490;28;20536;-86
2021/04/08 10:20:49;;;;;;;4.70;4.28;;;8.40;31.40;;;;;;5010960;28;20253;-88
2021/04/08 10:23:51;;;;;;;5.05;4.72;;;8.90;32.10;;;;;;5011955;28;20164;-86
2021/04/08 10:26:22;;;;;;;9.90;5.75;;;8.70;31.00;;;;;;5011241;28;20631;-87
2021/04/08 10:29:03;;;;;;;6.23;3.80;;;8.70;31.40;;;;;;5015241;28;20191;-85
2021/04/08 10:31:39;;;;;;;4.80;4.45;;;8.40;31.40;;;;;;4998085;28;20595;-86
2021/04/08 10:34:06;;;;;;;5.67;3.97;;;8.50;31.30;;;;;;5012481;28;20184;-86
2021/04/08 10:36:49;;;;;;;4.35;4.15;;;8.30;31.50;;;;;;5017648;28;20486;-87
2021/04/08 10:39:26;;;;;;;3.70;3.50;;;8.60;31.30;;;;;;5016865;28;20627;-86
2021/04/08 10:42:07;;;;;;;3.95;3.42;;;8.60;30.50;;;;;;5018018;28;20247;-85
2021/04/08 10:44:46;;;;;;;4.28;3.97;;;8.60;31.50;;;;;;5017606;28;20234;-87
2021/04/08 10:47:17;;;;;;;10.00;4.07;;;7.90;40.60;;;;;;5016651;28;20239;-86
2021/04/08 10:49:45;;;;;;;3.50;3.40;;;8.40;30.50;;;;;;4668605;28;10000519;-85
2021/04/08 10:52:14;;;;;;;4.18;3.97;;;8.60;44.30;;;;;;5014354;28;20188;-87
2021/04/08 10:54:42;;;;;;;3.75;3.55;;;9.10;43.60;;;;;;5014178;28;20537;-86
2021/04/08 10:57:09;;;;;;;6.03;5.13;;;9.70;42.60;;;;;;5013789;28;20177;-86
2021/04/08 10:59:38;;;;;;;5.27;4.77;;;9.30;30.00;;;;;;5012480;28;20196;-86
2021/04/08 11:02:20;;;;;;;6.45;5.50;;;9.10;29.80;;;;;;5013239;28;20428;-86
2021/04/08 11:04:47;;;;;;;5.10;4.90;;;8.90;29.80;;;;;;5013468;28;20654;-84
2021/04/08 11:07:12;;;;;;;11.07;8.10;;;8.80;30.00;;;;;;5011393;28;20506;-88
2021/04/08 11:09:38;;;;;;;5.20;4.57;;;8.20;29.50;;;;;;5013917;28;20180;-85
2021/04/08 11:12:22;;;;;;;4.30;4.20;;;8.20;31.00;;;;;;5013634;28;20179;-87
2021/04/08 11:14:56;;;;;;;4.65;4.35;;;8.70;30.70;;;;;;5013895;28;20191;-85
2021/04/08 11:17:23;;;;;;;4.40;4.30;;;8.50;30.00;;;;;;5012546;28;20263;-86
2021/04/08 11:19:52;;;;;;;5.37;5.07;;;9.20;30.10;;;;;;5012648;28;20303;-86
2021/04/08 11:22:21;;;;;;;5.00;4.80;;;8.90;29.20;;;;;;5014778;28;20416;-85
2021/04/08 11:24:50;;;;;;;4.18;4.07;;;9.20;29.50;;;;;;5015032;28;20652;-86
2021/04/08 11:27:30;;;;;;;5.30;4.90;;;9.70;41.00;;;;;;5016437;28;20228;-86
2021/04/08 11:29:56;;;;;;;4.32;4.13;;;9.60;28.70;;;;;;5016619;28;20412;-87
2021/04/08 11:32:22;;;;;;;5.00;4.65;;;9.20;28.70;;;;;;5015419;28;20219;-86
2021/04/08 11:34:53;;;;;;;4.57;4.40;;;8.80;41.30;;;;;;5015998;28;20169;-86
2021/04/08 11:37:35;;;;;;;4.70;4.57;;;8.60;29.30;;;;;;5015151;28;20173;-85
2021/04/08 11:40:01;;;;;;;6.13;4.77;;;9.00;30.80;;;;;;5013493;28;20169;-85
2021/04/08 11:42:33;;;;;;;4.40;4.10;;;11.10;30.10;;;;;;5013716;28;20953;-85
2021/04/08 11:45:23;;;;;;;4.13;3.92;;;10.40;30.00;;;;;;5015530;28;20234;-85
2021/04/08 11:47:59;;;;;;;5.28;4.82;;;9.40;30.00;;;;;;5013370;28;20204;-88
2021/04/08 11:50:36;;;;;;;4.85;4.45;;;11.00;31.00;;;;;;5014789;28;20160;-86
2021/04/08 11:53:18;;;;;;;5.93;5.38;;;8.80;30.90;;;;;;5015400;28;20176;-87
2021/04/08 11:55:49;;;;;;;5.90;5.50;;;9.10;30.80;;;;;;5014242;28;20176;-86
2021/04/08 11:58:36;;;;;;;5.28;4.78;;;9.10;29.50;;;;;;5015002;28;20172;-86
2021/04/08 12:01:15;;;;;;;5.50;5.20;;;8.60;29.90;;;;;;5015348;28;20705;-85
2021/04/08 12:03:46;;;;;;;6.18;5.63;;;8.50;29.90;;;;;;5014139;28;20544;-86
2021/04/08 12:06:15;;;;;;;7.30;5.25;;;8.40;30.00;;;;;;5014645;28;20165;-87
2021/04/08 12:08:41;;;;;;;5.25;4.90;;;8.40;29.80;;;;;;5013011;28;20180;-87
2021/04/08 12:11:08;;;;;;;5.60;5.50;;;9.00;29.70;;;;;;5015358;28;20489;-85
2021/04/08 12:13:37;;;;;;;5.00;4.70;;;9.30;28.60;;;;;;5014825;28;20307;-87
2021/04/08 12:16:05;;;;;;;5.53;5.13;;;11.70;29.10;;;;;;5017328;28;20324;-90
2021/04/08 12:18:38;;;;;;;6.40;5.95;;;10.00;27.40;;;;;;5024279;28;20181;-89
2021/04/08 12:21:11;;;;;;;6.68;6.10;;;12.20;29.00;;;;;;5026764;28;20231;-87
2021/04/08 12:23:37;;;;;;;6.27;5.97;;;;;;;;;;5025903;28;20652;-90
2021/04/08 12:26:03;;;;;;;6.55;6.03;;;;;;;;;;5017549;28;21021;-87
2021/04/08 12:28:29;;;;;;;6.47;6.17;;;10.80;27.30;;;;;;5014909;28;20216;-87
2021/04/08 12:31:00;;;;;;;6.00;5.80;;;10.40;27.10;;;;;;5015965;28;20915;-87
2021/04/08 12:33:33;;;;;;;7.00;6.50;;;9.90;27.70;;;;;;5015963;28;20217;-86
2021/04/08 12:36:01;;;;;;;6.90;6.50;;;10.20;28.10;;;;;;5015963;28;20269;-87
2021/04/08 12:38:28;;;;;;;7.35;6.60;;;10.10;27.70;;;;;;5012867;28;20501;-87
2021/04/08 12:40:55;;;;;;;9.50;6.57;;;10.10;27.60;;;;;;5012474;28;20262;-86
2021/04/08 12:43:21;;;;;;;5.85;5.55;;;8.40;28.10;;;;;;5015034;28;20547;-87
2021/04/08 12:45:47;;;;;;;5.90;5.70;;;;;;;;;;5020585;28;20200;-93
2021/04/08 12:48:13;;;;;;;5.13;4.77;;;10.60;27.10;;;;;;5015674;28;20471;-86
2021/04/08 12:50:41;;;;;;;6.43;5.80;;;10.50;27.60;;;;;;5009572;28;20451;-86
2021/04/08 12:53:07;;;;;;;6.03;5.80;;;10.70;27.60;;;;;;5003219;28;20197;-85
2021/04/08 12:55:33;;;;;;;6.10;5.70;;;10.50;27.90;;;;;;4993906;28;20488;-85
2021/04/08 12:57:59;;;;;;;7.03;6.40;;;10.60;28.00;;;;;;5012648;28;20238;-87
2021/04/08 13:00:25;;;;;;;7.10;6.70;;;10.40;27.90;;;;;;5013042;28;20176;-86
2021/04/08 13:02:52;;;;;;;7.30;6.90;;;10.50;28.20;;;;;;5013568;28;20252;-87
2021/04/08 13:05:18;;;;;;;7.50;7.00;;;10.60;27.80;;;;;;5013383;28;20974;-85
2021/04/08 13:07:44;;;;;;;6.80;6.40;;;10.40;27.50;;;;;;5012997;28;20566;-85
2021/04/08 13:10:10;;;;;;;6.37;6.03;;;11.00;27.50;;;;;;5013135;28;20169;-86